sensor_id;sensor_type;location;lat;lon;timestamp;temperature;humidity
21387;DHT22;10854;45.922;6.716;2024-02-21T00:00:08;3.20;99.90
21387;DHT22;10854;45.922;6.716;2024-02-21T00:02:39;3.20;99.90
21387;DHT22;10854;45.922;6.716;2024-02-21T00:05:07;3.20;99.90
21387;DHT22;10854;45.922;6.716;2024-02-21T00:07:36;3.10;99.90
21387;DHT22;10854;45.922;6.716;2024-02-21T00:10:07;3.10;99.90
21387;DHT22;10854;45.922;6.716;2024-02-21T00:12:35;3.10;99.90
21387;DHT22;10854;45.922;6.716;2024-02-21T00:15:04;3.10;99.90
21387;DHT22;10854;45.922;6.716;2024-02-21T00:17:34;3.00;99.90
21387;DHT22;10854;45.922;6.716;2024-02-21T00:20:03;3.00;99.90
21387;DHT22;10854;45.922;6.716;2024-02-21T00:22:32;3.00;99.90
21387;DHT22;10854;45.922;6.716;2024-02-21T00:25:01;2.90;99.90
21387;DHT22;10854;45.922;6.716;2024-02-21T00:27:32;2.90;99.90
21387;DHT22;10854;45.922;6.716;2024-02-21T00:30:02;2.80;99.90
21387;DHT22;10854;45.922;6.716;2024-02-21T00:32:31;2.70;99.90
21387;DHT22;10854;45.922;6.716;2024-02-21T00:35:02;2.70;99.90
21387;DHT22;10854;45.922;6.716;2024-02-21T00:37:32;2.70;99.90
21387;DHT22;10854;45.922;6.716;2024-02-21T00:40:01;2.60;99.90
21387;DHT22;10854;45.922;6.716;2024-02-21T00:42:29;2.60;99.90
21387;DHT22;10854;45.922;6.716;2024-02-21T00:44:58;2.60;99.90
21387;DHT22;10854;45.922;6.716;2024-02-21T00:47:27;2.60;99.90
21387;DHT22;10854;45.922;6.716;2024-02-21T00:49:56;2.60;99.90
21387;DHT22;10854;45.922;6.716;2024-02-21T00:52:24;2.60;99.90
21387;DHT22;10854;45.922;6.716;2024-02-21T00:54:53;2.70;99.90
21387;DHT22;10854;45.922;6.716;2024-02-21T00:57:21;2.80;99.90
21387;DHT22;10854;45.922;6.716;2024-02-21T00:59:51;2.80;99.90
21387;DHT22;10854;45.922;6.716;2024-02-21T01:02:19;2.90;99.90
21387;DHT22;10854;45.922;6.716;2024-02-21T01:04:48;3.00;99.90
21387;DHT22;10854;45.922;6.716;2024-02-21T01:07:17;3.00;99.90
21387;DHT22;10854;45.922;6.716;2024-02-21T01:09:45;3.00;99.90
21387;DHT22;10854;45.922;6.716;2024-02-21T01:12:14;3.00;99.90
21387;DHT22;10854;45.922;6.716;2024-02-21T01:14:44;3.00;99.90
21387;DHT22;10854;45.922;6.716;2024-02-21T01:17:14;2.90;99.90
21387;DHT22;10854;45.922;6.716;2024-02-21T01:19:42;2.90;99.90
21387;DHT22;10854;45.922;6.716;2024-02-21T01:22:12;2.90;99.90
21387;DHT22;10854;45.922;6.716;2024-02-21T01:24:42;2.80;99.90
21387;DHT22;10854;45.922;6.716;2024-02-21T01:27:11;2.80;99.90
21387;DHT22;10854;45.922;6.716;2024-02-21T01:29:39;2.80;99.90
21387;DHT22;10854;45.922;6.716;2024-02-21T01:32:08;2.80;99.90
21387;DHT22;10854;45.922;6.716;2024-02-21T01:34:36;2.90;99.90
21387;DHT22;10854;45.922;6.716;2024-02-21T01:37:05;2.90;99.90
21387;DHT22;10854;45.922;6.716;2024-02-21T01:39:35;2.90;99.90
21387;DHT22;10854;45.922;6.716;2024-02-21T01:42:04;3.00;99.90
21387;DHT22;10854;45.922;6.716;2024-02-21T01:44:32;3.10;99.90
21387;DHT22;10854;45.922;6.716;2024-02-21T01:47:01;3.10;99.90
21387;DHT22;10854;45.922;6.716;2024-02-21T01:49:30;3.20;99.90
21387;DHT22;10854;45.922;6.716;2024-02-21T01:52:01;3.20;99.90
21387;DHT22;10854;45.922;6.716;2024-02-21T01:54:31;3.10;99.90
21387;DHT22;10854;45.922;6.716;2024-02-21T01:57:00;3.10;99.90
21387;DHT22;10854;45.922;6.716;2024-02-21T01:59:29;3.10;99.90
21387;DHT22;10854;45.922;6.716;2024-02-21T02:02:00;3.00;99.90
21387;DHT22;10854;45.922;6.716;2024-02-21T02:04:29;3.00;99.90
21387;DHT22;10854;45.922;6.716;2024-02-21T02:07:00;3.00;99.90
21387;DHT22;10854;45.922;6.716;2024-02-21T02:09:31;3.00;99.90
21387;DHT22;10854;45.922;6.716;2024-02-21T02:11:59;3.00;99.90
21387;DHT22;10854;45.922;6.716;2024-02-21T02:14:28;3.00;99.90
21387;DHT22;10854;45.922;6.716;2024-02-21T02:16:57;3.00;99.90
21387;DHT22;10854;45.922;6.716;2024-02-21T02:19:26;3.00;99.90
21387;DHT22;10854;45.922;6.716;2024-02-21T02:22:02;2.90;99.90
21387;DHT22;10854;45.922;6.716;2024-02-21T02:24:36;2.90;99.90
21387;DHT22;10854;45.922;6.716;2024-02-21T02:27:05;2.90;99.90
21387;DHT22;10854;45.922;6.716;2024-02-21T02:29:33;2.90;99.90
21387;DHT22;10854;45.922;6.716;2024-02-21T02:32:02;3.00;99.90
21387;DHT22;10854;45.922;6.716;2024-02-21T02:34:31;3.00;99.90
21387;DHT22;10854;45.922;6.716;2024-02-21T02:36:59;3.00;99.90
21387;DHT22;10854;45.922;6.716;2024-02-21T02:39:28;3.00;99.90
21387;DHT22;10854;45.922;6.716;2024-02-21T02:41:56;2.90;99.90
21387;DHT22;10854;45.922;6.716;2024-02-21T02:44:25;2.90;99.90
21387;DHT22;10854;45.922;6.716;2024-02-21T02:46:53;2.90;99.90
21387;DHT22;10854;45.922;6.716;2024-02-21T02:49:22;3.00;99.90
21387;DHT22;10854;45.922;6.716;2024-02-21T02:51:50;3.00;99.90
21387;DHT22;10854;45.922;6.716;2024-02-21T02:54:19;3.00;99.90
21387;DHT22;10854;45.922;6.716;2024-02-21T02:56:47;3.10;99.90
21387;DHT22;10854;45.922;6.716;2024-02-21T02:59:19;3.10;99.90
21387;DHT22;10854;45.922;6.716;2024-02-21T03:01:47;3.10;99.90
21387;DHT22;10854;45.922;6.716;2024-02-21T03:04:16;3.10;99.90
21387;DHT22;10854;45.922;6.716;2024-02-21T03:06:44;3.10;99.90
21387;DHT22;10854;45.922;6.716;2024-02-21T03:09:13;3.20;99.90
21387;DHT22;10854;45.922;6.716;2024-02-21T03:11:44;3.20;99.90
21387;DHT22;10854;45.922;6.716;2024-02-21T03:14:13;3.20;99.90
21387;DHT22;10854;45.922;6.716;2024-02-21T03:16:41;3.20;99.90
21387;DHT22;10854;45.922;6.716;2024-02-21T03:19:12;3.10;99.90
21387;DHT22;10854;45.922;6.716;2024-02-21T03:21:42;3.20;99.90
21387;DHT22;10854;45.922;6.716;2024-02-21T03:24:11;3.20;99.90
21387;DHT22;10854;45.922;6.716;2024-02-21T03:26:40;3.30;99.90
21387;DHT22;10854;45.922;6.716;2024-02-21T03:29:09;3.20;99.90
21387;DHT22;10854;45.922;6.716;2024-02-21T03:31:38;3.30;99.90
21387;DHT22;10854;45.922;6.716;2024-02-21T03:34:07;3.20;99.90
21387;DHT22;10854;45.922;6.716;2024-02-21T03:36:35;3.20;99.90
21387;DHT22;10854;45.922;6.716;2024-02-21T03:39:04;3.20;99.90
21387;DHT22;10854;45.922;6.716;2024-02-21T03:41:33;3.20;99.90
21387;DHT22;10854;45.922;6.716;2024-02-21T03:44:02;3.20;99.90
21387;DHT22;10854;45.922;6.716;2024-02-21T03:46:31;3.20;99.90
21387;DHT22;10854;45.922;6.716;2024-02-21T03:49:00;3.30;99.90
21387;DHT22;10854;45.922;6.716;2024-02-21T03:51:32;3.40;99.90
21387;DHT22;10854;45.922;6.716;2024-02-21T03:54:01;3.50;99.90
21387;DHT22;10854;45.922;6.716;2024-02-21T03:56:30;3.40;99.90
21387;DHT22;10854;45.922;6.716;2024-02-21T03:59:02;3.40;99.90
21387;DHT22;10854;45.922;6.716;2024-02-21T04:01:30;3.30;99.90
21387;DHT22;10854;45.922;6.716;2024-02-21T04:03:59;3.30;99.90
21387;DHT22;10854;45.922;6.716;2024-02-21T04:06:28;3.20;99.90
21387;DHT22;10854;45.922;6.716;2024-02-21T04:09:04;3.20;99.90
21387;DHT22;10854;45.922;6.716;2024-02-21T04:11:32;3.10;99.90
21387;DHT22;10854;45.922;6.716;2024-02-21T04:14:01;3.00;99.90
21387;DHT22;10854;45.922;6.716;2024-02-21T04:16:30;2.90;99.90
21387;DHT22;10854;45.922;6.716;2024-02-21T04:18:58;2.90;99.90
21387;DHT22;10854;45.922;6.716;2024-02-21T04:21:30;2.80;99.90
21387;DHT22;10854;45.922;6.716;2024-02-21T04:23:59;2.70;99.90
21387;DHT22;10854;45.922;6.716;2024-02-21T04:26:28;2.60;99.90
21387;DHT22;10854;45.922;6.716;2024-02-21T04:28:56;2.60;99.90
21387;DHT22;10854;45.922;6.716;2024-02-21T04:31:25;2.60;99.90
21387;DHT22;10854;45.922;6.716;2024-02-21T04:33:53;2.60;99.90
21387;DHT22;10854;45.922;6.716;2024-02-21T04:36:22;2.60;99.90
21387;DHT22;10854;45.922;6.716;2024-02-21T04:38:52;2.70;99.90
21387;DHT22;10854;45.922;6.716;2024-02-21T04:41:20;2.70;99.90
21387;DHT22;10854;45.922;6.716;2024-02-21T04:43:49;2.60;99.90
21387;DHT22;10854;45.922;6.716;2024-02-21T04:46:18;2.60;99.90
21387;DHT22;10854;45.922;6.716;2024-02-21T04:48:46;2.50;99.90
21387;DHT22;10854;45.922;6.716;2024-02-21T04:51:16;2.40;99.90
21387;DHT22;10854;45.922;6.716;2024-02-21T04:53:47;2.40;99.90
21387;DHT22;10854;45.922;6.716;2024-02-21T04:56:16;2.50;99.90
21387;DHT22;10854;45.922;6.716;2024-02-21T04:58:45;2.50;99.90
21387;DHT22;10854;45.922;6.716;2024-02-21T05:01:13;2.50;99.90
21387;DHT22;10854;45.922;6.716;2024-02-21T05:03:42;2.60;99.90
21387;DHT22;10854;45.922;6.716;2024-02-21T05:06:13;2.60;99.90
21387;DHT22;10854;45.922;6.716;2024-02-21T05:08:42;2.60;99.90
21387;DHT22;10854;45.922;6.716;2024-02-21T05:11:13;2.50;99.90
21387;DHT22;10854;45.922;6.716;2024-02-21T05:13:41;2.50;99.90
21387;DHT22;10854;45.922;6.716;2024-02-21T05:16:10;2.40;99.90
21387;DHT22;10854;45.922;6.716;2024-02-21T05:18:40;2.30;99.90
21387;DHT22;10854;45.922;6.716;2024-02-21T05:21:11;2.30;99.90
21387;DHT22;10854;45.922;6.716;2024-02-21T05:23:40;2.20;99.90
21387;DHT22;10854;45.922;6.716;2024-02-21T05:26:09;2.10;99.90
21387;DHT22;10854;45.922;6.716;2024-02-21T05:28:38;2.20;99.90
21387;DHT22;10854;45.922;6.716;2024-02-21T05:31:06;2.20;99.90
21387;DHT22;10854;45.922;6.716;2024-02-21T05:33:35;2.20;99.90
21387;DHT22;10854;45.922;6.716;2024-02-21T05:36:04;2.20;99.90
21387;DHT22;10854;45.922;6.716;2024-02-21T05:38:33;2.20;99.90
21387;DHT22;10854;45.922;6.716;2024-02-21T05:41:01;2.20;99.90
21387;DHT22;10854;45.922;6.716;2024-02-21T05:43:31;2.10;99.90
21387;DHT22;10854;45.922;6.716;2024-02-21T05:46:00;2.10;99.90
21387;DHT22;10854;45.922;6.716;2024-02-21T05:48:28;2.00;99.90
21387;DHT22;10854;45.922;6.716;2024-02-21T05:50:57;2.00;99.90
21387;DHT22;10854;45.922;6.716;2024-02-21T05:53:25;1.90;99.90
21387;DHT22;10854;45.922;6.716;2024-02-21T05:55:54;1.80;99.90
21387;DHT22;10854;45.922;6.716;2024-02-21T05:58:22;1.80;99.90
21387;DHT22;10854;45.922;6.716;2024-02-21T06:00:51;1.70;99.90
21387;DHT22;10854;45.922;6.716;2024-02-21T06:03:20;1.70;99.90
21387;DHT22;10854;45.922;6.716;2024-02-21T06:05:49;1.70;99.90
21387;DHT22;10854;45.922;6.716;2024-02-21T06:08:17;1.70;99.90
21387;DHT22;10854;45.922;6.716;2024-02-21T06:10:46;1.60;99.90
21387;DHT22;10854;45.922;6.716;2024-02-21T06:13:16;1.60;99.90
21387;DHT22;10854;45.922;6.716;2024-02-21T06:15:44;1.60;99.90
21387;DHT22;10854;45.922;6.716;2024-02-21T06:18:13;1.60;99.90
21387;DHT22;10854;45.922;6.716;2024-02-21T06:20:42;1.50;99.90
21387;DHT22;10854;45.922;6.716;2024-02-21T06:23:11;1.50;99.90
21387;DHT22;10854;45.922;6.716;2024-02-21T06:25:42;1.50;99.90
21387;DHT22;10854;45.922;6.716;2024-02-21T06:28:11;1.50;99.90
21387;DHT22;10854;45.922;6.716;2024-02-21T06:30:40;1.50;99.90
21387;DHT22;10854;45.922;6.716;2024-02-21T06:33:09;1.50;99.90
21387;DHT22;10854;45.922;6.716;2024-02-21T06:35:38;1.60;99.90
21387;DHT22;10854;45.922;6.716;2024-02-21T06:38:11;1.70;99.90
21387;DHT22;10854;45.922;6.716;2024-02-21T06:40:40;1.70;99.90
21387;DHT22;10854;45.922;6.716;2024-02-21T06:43:08;1.80;99.90
21387;DHT22;10854;45.922;6.716;2024-02-21T06:45:37;1.80;99.90
21387;DHT22;10854;45.922;6.716;2024-02-21T06:48:05;1.90;99.90
21387;DHT22;10854;45.922;6.716;2024-02-21T06:50:37;1.90;99.90
21387;DHT22;10854;45.922;6.716;2024-02-21T06:53:06;1.90;99.90
21387;DHT22;10854;45.922;6.716;2024-02-21T06:55:34;2.00;99.90
21387;DHT22;10854;45.922;6.716;2024-02-21T06:58:03;2.10;99.90
21387;DHT22;10854;45.922;6.716;2024-02-21T07:00:31;2.20;99.90
21387;DHT22;10854;45.922;6.716;2024-02-21T07:03:00;2.40;99.90
21387;DHT22;10854;45.922;6.716;2024-02-21T07:05:28;2.50;99.90
21387;DHT22;10854;45.922;6.716;2024-02-21T07:07:57;2.60;99.90
21387;DHT22;10854;45.922;6.716;2024-02-21T07:10:25;2.70;99.90
21387;DHT22;10854;45.922;6.716;2024-02-21T07:12:56;2.80;99.90
21387;DHT22;10854;45.922;6.716;2024-02-21T07:15:24;3.00;99.90
21387;DHT22;10854;45.922;6.716;2024-02-21T07:17:54;3.10;99.90
21387;DHT22;10854;45.922;6.716;2024-02-21T07:20:24;3.20;99.90
21387;DHT22;10854;45.922;6.716;2024-02-21T07:22:52;3.30;99.90
21387;DHT22;10854;45.922;6.716;2024-02-21T07:25:21;3.40;99.90
21387;DHT22;10854;45.922;6.716;2024-02-21T07:27:49;3.60;99.90
21387;DHT22;10854;45.922;6.716;2024-02-21T07:30:18;3.70;99.90
21387;DHT22;10854;45.922;6.716;2024-02-21T07:32:49;3.90;99.90
21387;DHT22;10854;45.922;6.716;2024-02-21T07:35:18;4.00;99.90
21387;DHT22;10854;45.922;6.716;2024-02-21T07:37:47;4.10;99.90
21387;DHT22;10854;45.922;6.716;2024-02-21T07:40:16;4.20;99.90
21387;DHT22;10854;45.922;6.716;2024-02-21T07:42:45;4.40;99.90
21387;DHT22;10854;45.922;6.716;2024-02-21T07:45:14;4.50;99.90
21387;DHT22;10854;45.922;6.716;2024-02-21T07:47:46;4.60;99.90
21387;DHT22;10854;45.922;6.716;2024-02-21T07:50:14;4.70;99.90
21387;DHT22;10854;45.922;6.716;2024-02-21T07:52:43;4.80;99.90
21387;DHT22;10854;45.922;6.716;2024-02-21T07:55:11;4.90;99.90
21387;DHT22;10854;45.922;6.716;2024-02-21T07:57:40;4.90;99.90
21387;DHT22;10854;45.922;6.716;2024-02-21T08:00:09;5.10;99.90
21387;DHT22;10854;45.922;6.716;2024-02-21T08:02:41;5.20;99.90
21387;DHT22;10854;45.922;6.716;2024-02-21T08:05:12;5.40;99.90
21387;DHT22;10854;45.922;6.716;2024-02-21T08:07:40;5.50;99.90
21387;DHT22;10854;45.922;6.716;2024-02-21T08:10:09;5.50;99.90
21387;DHT22;10854;45.922;6.716;2024-02-21T08:12:38;5.60;99.90
21387;DHT22;10854;45.922;6.716;2024-02-21T08:15:07;5.70;99.90
21387;DHT22;10854;45.922;6.716;2024-02-21T08:17:38;5.80;99.90
21387;DHT22;10854;45.922;6.716;2024-02-21T08:20:07;5.90;99.90
21387;DHT22;10854;45.922;6.716;2024-02-21T08:22:37;6.00;99.90
21387;DHT22;10854;45.922;6.716;2024-02-21T08:25:06;6.20;99.90
21387;DHT22;10854;45.922;6.716;2024-02-21T08:27:35;6.40;99.90
21387;DHT22;10854;45.922;6.716;2024-02-21T08:30:06;6.60;99.90
21387;DHT22;10854;45.922;6.716;2024-02-21T08:32:35;6.60;99.90
21387;DHT22;10854;45.922;6.716;2024-02-21T08:35:05;6.70;99.90
21387;DHT22;10854;45.922;6.716;2024-02-21T08:37:34;6.80;99.90
21387;DHT22;10854;45.922;6.716;2024-02-21T08:40:02;6.90;99.90
21387;DHT22;10854;45.922;6.716;2024-02-21T08:42:38;6.90;99.90
21387;DHT22;10854;45.922;6.716;2024-02-21T08:45:07;7.00;99.90
21387;DHT22;10854;45.922;6.716;2024-02-21T08:47:39;7.20;99.90
21387;DHT22;10854;45.922;6.716;2024-02-21T08:50:08;7.40;99.90
21387;DHT22;10854;45.922;6.716;2024-02-21T08:52:41;7.80;99.90
21387;DHT22;10854;45.922;6.716;2024-02-21T08:55:10;8.20;99.90
21387;DHT22;10854;45.922;6.716;2024-02-21T08:57:39;8.70;98.50
21387;DHT22;10854;45.922;6.716;2024-02-21T09:00:07;9.00;95.90
21387;DHT22;10854;45.922;6.716;2024-02-21T09:02:41;9.30;94.30
21387;DHT22;10854;45.922;6.716;2024-02-21T09:05:12;9.70;93.20
21387;DHT22;10854;45.922;6.716;2024-02-21T09:07:41;10.00;91.80
21387;DHT22;10854;45.922;6.716;2024-02-21T09:10:09;10.50;90.70
21387;DHT22;10854;45.922;6.716;2024-02-21T09:12:38;10.80;89.50
21387;DHT22;10854;45.922;6.716;2024-02-21T09:15:07;11.10;87.30
21387;DHT22;10854;45.922;6.716;2024-02-21T09:17:35;11.30;84.60
21387;DHT22;10854;45.922;6.716;2024-02-21T09:20:04;11.50;82.80
21387;DHT22;10854;45.922;6.716;2024-02-21T09:22:33;11.60;80.40
21387;DHT22;10854;45.922;6.716;2024-02-21T09:25:02;11.60;79.30
21387;DHT22;10854;45.922;6.716;2024-02-21T09:27:33;11.80;78.50
21387;DHT22;10854;45.922;6.716;2024-02-21T09:30:01;12.00;77.40
21387;DHT22;10854;45.922;6.716;2024-02-21T09:32:32;12.10;75.90
21387;DHT22;10854;45.922;6.716;2024-02-21T09:35:01;12.30;75.10
21387;DHT22;10854;45.922;6.716;2024-02-21T09:37:29;12.70;74.60
21387;DHT22;10854;45.922;6.716;2024-02-21T09:40:01;13.00;73.80
21387;DHT22;10854;45.922;6.716;2024-02-21T09:42:42;13.30;71.60
21387;DHT22;10854;45.922;6.716;2024-02-21T09:45:22;13.30;69.60
21387;DHT22;10854;45.922;6.716;2024-02-21T09:51:04;13.10;68.40
21387;DHT22;10854;45.922;6.716;2024-02-21T09:53:34;13.20;69.40
21387;DHT22;10854;45.922;6.716;2024-02-21T09:56:08;13.40;68.90
21387;DHT22;10854;45.922;6.716;2024-02-21T09:58:38;13.60;68.40
21387;DHT22;10854;45.922;6.716;2024-02-21T10:01:09;13.90;68.20
21387;DHT22;10854;45.922;6.716;2024-02-21T10:03:37;14.00;67.10
21387;DHT22;10854;45.922;6.716;2024-02-21T10:06:06;14.10;66.20
21387;DHT22;10854;45.922;6.716;2024-02-21T10:08:34;14.20;65.70
21387;DHT22;10854;45.922;6.716;2024-02-21T10:11:03;14.20;64.70
21387;DHT22;10854;45.922;6.716;2024-02-21T10:13:31;14.20;63.80
21387;DHT22;10854;45.922;6.716;2024-02-21T10:16:04;14.20;63.60
21387;DHT22;10854;45.922;6.716;2024-02-21T10:18:34;14.20;63.20
21387;DHT22;10854;45.922;6.716;2024-02-21T10:21:04;14.10;63.50
21387;DHT22;10854;45.922;6.716;2024-02-21T10:23:47;14.20;64.20
21387;DHT22;10854;45.922;6.716;2024-02-21T10:26:18;14.30;64.30
21387;DHT22;10854;45.922;6.716;2024-02-21T10:28:49;14.40;64.50
21387;DHT22;10854;45.922;6.716;2024-02-21T10:31:26;14.40;63.50
21387;DHT22;10854;45.922;6.716;2024-02-21T10:33:56;14.20;63.20
21387;DHT22;10854;45.922;6.716;2024-02-21T10:36:26;14.30;63.20
21387;DHT22;10854;45.922;6.716;2024-02-21T10:38:55;14.40;62.10
21387;DHT22;10854;45.922;6.716;2024-02-21T10:41:24;14.70;62.00
21387;DHT22;10854;45.922;6.716;2024-02-21T10:43:54;15.00;61.40
21387;DHT22;10854;45.922;6.716;2024-02-21T10:46:24;15.40;59.70
21387;DHT22;10854;45.922;6.716;2024-02-21T10:49:03;15.70;59.20
21387;DHT22;10854;45.922;6.716;2024-02-21T10:51:38;15.80;57.50
21387;DHT22;10854;45.922;6.716;2024-02-21T10:54:15;15.90;57.10
21387;DHT22;10854;45.922;6.716;2024-02-21T10:56:50;15.90;57.20
21387;DHT22;10854;45.922;6.716;2024-02-21T10:59:20;16.20;57.10
21387;DHT22;10854;45.922;6.716;2024-02-21T11:01:49;16.30;56.60
21387;DHT22;10854;45.922;6.716;2024-02-21T11:04:18;16.40;56.50
21387;DHT22;10854;45.922;6.716;2024-02-21T11:06:47;16.40;56.20
21387;DHT22;10854;45.922;6.716;2024-02-21T11:09:18;16.50;56.20
21387;DHT22;10854;45.922;6.716;2024-02-21T11:11:50;16.80;56.00
21387;DHT22;10854;45.922;6.716;2024-02-21T11:14:20;17.00;55.20
21387;DHT22;10854;45.922;6.716;2024-02-21T11:16:50;17.00;53.80
21387;DHT22;10854;45.922;6.716;2024-02-21T11:19:24;16.90;53.60
21387;DHT22;10854;45.922;6.716;2024-02-21T11:21:54;16.80;53.70
21387;DHT22;10854;45.922;6.716;2024-02-21T11:24:28;16.70;53.90
21387;DHT22;10854;45.922;6.716;2024-02-21T11:27:09;16.60;53.80
21387;DHT22;10854;45.922;6.716;2024-02-21T11:29:47;16.40;53.60
21387;DHT22;10854;45.922;6.716;2024-02-21T11:32:19;16.30;54.00
21387;DHT22;10854;45.922;6.716;2024-02-21T11:37:25;16.20;54.20
21387;DHT22;10854;45.922;6.716;2024-02-21T11:39:57;16.30;54.20
21387;DHT22;10854;45.922;6.716;2024-02-21T11:42:28;16.40;54.10
21387;DHT22;10854;45.922;6.716;2024-02-21T11:45:00;16.30;54.00
21387;DHT22;10854;45.922;6.716;2024-02-21T11:47:29;16.20;54.20
21387;DHT22;10854;45.922;6.716;2024-02-21T11:49:58;16.10;54.00
21387;DHT22;10854;45.922;6.716;2024-02-21T11:52:28;16.10;54.10
21387;DHT22;10854;45.922;6.716;2024-02-21T11:54:56;16.20;54.40
21387;DHT22;10854;45.922;6.716;2024-02-21T11:57:32;16.30;54.00
21387;DHT22;10854;45.922;6.716;2024-02-21T12:00:17;16.20;53.90
21387;DHT22;10854;45.922;6.716;2024-02-21T12:02:46;16.10;53.70
21387;DHT22;10854;45.922;6.716;2024-02-21T12:05:16;16.10;54.20
21387;DHT22;10854;45.922;6.716;2024-02-21T12:07:47;16.20;54.20
21387;DHT22;10854;45.922;6.716;2024-02-21T12:10:17;16.50;53.90
21387;DHT22;10854;45.922;6.716;2024-02-21T12:12:45;16.70;54.40
21387;DHT22;10854;45.922;6.716;2024-02-21T12:15:14;16.90;53.40
21387;DHT22;10854;45.922;6.716;2024-02-21T12:17:43;17.10;53.30
21387;DHT22;10854;45.922;6.716;2024-02-21T12:20:12;17.40;52.90
21387;DHT22;10854;45.922;6.716;2024-02-21T12:22:43;17.70;52.50
21387;DHT22;10854;45.922;6.716;2024-02-21T12:25:21;17.90;52.10
21387;DHT22;10854;45.922;6.716;2024-02-21T12:27:51;18.10;51.80
21387;DHT22;10854;45.922;6.716;2024-02-21T12:30:20;18.20;51.50
21387;DHT22;10854;45.922;6.716;2024-02-21T12:32:48;18.10;51.50
21387;DHT22;10854;45.922;6.716;2024-02-21T12:35:17;18.20;51.20
21387;DHT22;10854;45.922;6.716;2024-02-21T12:37:48;18.10;51.30
21387;DHT22;10854;45.922;6.716;2024-02-21T12:40:16;18.10;51.50
21387;DHT22;10854;45.922;6.716;2024-02-21T12:42:45;18.20;51.60
21387;DHT22;10854;45.922;6.716;2024-02-21T12:45:17;18.20;51.70
21387;DHT22;10854;45.922;6.716;2024-02-21T12:47:47;18.10;51.80
21387;DHT22;10854;45.922;6.716;2024-02-21T12:50:15;18.00;51.70
21387;DHT22;10854;45.922;6.716;2024-02-21T12:52:45;18.00;51.70
21387;DHT22;10854;45.922;6.716;2024-02-21T12:55:16;17.80;51.90
21387;DHT22;10854;45.922;6.716;2024-02-21T12:57:47;17.80;52.30
21387;DHT22;10854;45.922;6.716;2024-02-21T13:00:18;17.60;52.40
21387;DHT22;10854;45.922;6.716;2024-02-21T13:02:48;17.40;52.50
21387;DHT22;10854;45.922;6.716;2024-02-21T13:05:18;17.40;52.80
21387;DHT22;10854;45.922;6.716;2024-02-21T13:07:47;17.60;52.80
21387;DHT22;10854;45.922;6.716;2024-02-21T13:10:16;17.70;52.50
21387;DHT22;10854;45.922;6.716;2024-02-21T13:12:47;17.80;52.20
21387;DHT22;10854;45.922;6.716;2024-02-21T13:15:16;18.10;52.30
21387;DHT22;10854;45.922;6.716;2024-02-21T13:17:45;18.20;51.80
21387;DHT22;10854;45.922;6.716;2024-02-21T13:20:15;18.40;50.90
21387;DHT22;10854;45.922;6.716;2024-02-21T13:22:43;18.60;50.70
21387;DHT22;10854;45.922;6.716;2024-02-21T13:25:13;18.60;50.80
21387;DHT22;10854;45.922;6.716;2024-02-21T13:27:48;18.90;50.90
21387;DHT22;10854;45.922;6.716;2024-02-21T13:30:18;19.10;50.60
21387;DHT22;10854;45.922;6.716;2024-02-21T13:32:48;19.30;50.20
21387;DHT22;10854;45.922;6.716;2024-02-21T13:35:16;19.50;50.00
21387;DHT22;10854;45.922;6.716;2024-02-21T13:37:47;19.70;49.40
21387;DHT22;10854;45.922;6.716;2024-02-21T13:40:16;19.80;48.60
21387;DHT22;10854;45.922;6.716;2024-02-21T13:42:45;20.00;48.30
21387;DHT22;10854;45.922;6.716;2024-02-21T13:45:14;20.30;48.30
21387;DHT22;10854;45.922;6.716;2024-02-21T13:47:42;20.40;47.90
21387;DHT22;10854;45.922;6.716;2024-02-21T13:50:11;20.40;48.00
21387;DHT22;10854;45.922;6.716;2024-02-21T13:52:40;20.50;47.50
21387;DHT22;10854;45.922;6.716;2024-02-21T13:55:09;20.50;46.90
21387;DHT22;10854;45.922;6.716;2024-02-21T13:57:38;20.50;45.90
21387;DHT22;10854;45.922;6.716;2024-02-21T14:00:07;20.40;45.80
21387;DHT22;10854;45.922;6.716;2024-02-21T14:02:38;20.50;46.00
21387;DHT22;10854;45.922;6.716;2024-02-21T14:05:10;20.50;45.90
21387;DHT22;10854;45.922;6.716;2024-02-21T14:07:39;20.60;46.20
21387;DHT22;10854;45.922;6.716;2024-02-21T14:10:08;20.60;46.10
21387;DHT22;10854;45.922;6.716;2024-02-21T14:12:37;20.60;46.00
21387;DHT22;10854;45.922;6.716;2024-02-21T14:15:06;20.50;45.30
21387;DHT22;10854;45.922;6.716;2024-02-21T14:17:35;20.30;44.20
21387;DHT22;10854;45.922;6.716;2024-02-21T14:20:04;20.00;44.00
21387;DHT22;10854;45.922;6.716;2024-02-21T14:22:33;19.70;44.30
21387;DHT22;10854;45.922;6.716;2024-02-21T14:25:02;19.70;44.90
21387;DHT22;10854;45.922;6.716;2024-02-21T14:27:31;19.60;45.40
21387;DHT22;10854;45.922;6.716;2024-02-21T14:30:01;19.50;45.20
21387;DHT22;10854;45.922;6.716;2024-02-21T14:32:30;19.40;44.80
21387;DHT22;10854;45.922;6.716;2024-02-21T14:34:59;19.30;45.00
21387;DHT22;10854;45.922;6.716;2024-02-21T14:37:28;19.20;46.20
21387;DHT22;10854;45.922;6.716;2024-02-21T14:39:57;18.90;47.30
21387;DHT22;10854;45.922;6.716;2024-02-21T14:42:27;18.80;48.10
21387;DHT22;10854;45.922;6.716;2024-02-21T14:44:56;18.60;48.80
21387;DHT22;10854;45.922;6.716;2024-02-21T14:47:34;18.10;49.00
21387;DHT22;10854;45.922;6.716;2024-02-21T14:50:03;17.80;49.30
21387;DHT22;10854;45.922;6.716;2024-02-21T14:52:32;17.60;50.00
21387;DHT22;10854;45.922;6.716;2024-02-21T14:55:01;17.40;50.30
21387;DHT22;10854;45.922;6.716;2024-02-21T14:57:31;17.30;50.50
21387;DHT22;10854;45.922;6.716;2024-02-21T14:59:59;17.10;50.60
21387;DHT22;10854;45.922;6.716;2024-02-21T15:02:28;16.80;50.70
21387;DHT22;10854;45.922;6.716;2024-02-21T15:04:56;16.50;50.70
21387;DHT22;10854;45.922;6.716;2024-02-21T15:07:27;16.30;51.10
21387;DHT22;10854;45.922;6.716;2024-02-21T15:09:56;16.10;51.10
21387;DHT22;10854;45.922;6.716;2024-02-21T15:12:24;16.00;51.40
21387;DHT22;10854;45.922;6.716;2024-02-21T15:14:53;15.90;51.80
21387;DHT22;10854;45.922;6.716;2024-02-21T15:17:22;15.80;51.80
21387;DHT22;10854;45.922;6.716;2024-02-21T15:19:50;15.80;52.20
21387;DHT22;10854;45.922;6.716;2024-02-21T15:22:20;15.70;52.40
21387;DHT22;10854;45.922;6.716;2024-02-21T15:24:50;15.50;52.30
21387;DHT22;10854;45.922;6.716;2024-02-21T15:27:19;15.40;52.60
21387;DHT22;10854;45.922;6.716;2024-02-21T15:29:49;15.40;53.20
21387;DHT22;10854;45.922;6.716;2024-02-21T15:32:17;15.20;53.80
21387;DHT22;10854;45.922;6.716;2024-02-21T15:34:46;15.20;54.50
21387;DHT22;10854;45.922;6.716;2024-02-21T15:37:15;15.10;54.80
21387;DHT22;10854;45.922;6.716;2024-02-21T15:39:44;15.10;55.20
21387;DHT22;10854;45.922;6.716;2024-02-21T15:42:12;15.10;55.20
21387;DHT22;10854;45.922;6.716;2024-02-21T15:44:41;15.00;55.20
21387;DHT22;10854;45.922;6.716;2024-02-21T15:47:10;15.00;55.30
21387;DHT22;10854;45.922;6.716;2024-02-21T15:49:38;15.00;55.60
21387;DHT22;10854;45.922;6.716;2024-02-21T15:52:09;14.90;56.00
21387;DHT22;10854;45.922;6.716;2024-02-21T15:54:39;14.80;56.20
21387;DHT22;10854;45.922;6.716;2024-02-21T15:57:08;14.70;56.60
21387;DHT22;10854;45.922;6.716;2024-02-21T15:59:37;14.70;56.60